Time;durP1;ratioP1;P1;durP2;ratioP2;P2;SDS_P1;SDS_P2;PMS_P1;PMS_P2;Temp;Humidity;BMP_temperature;BMP_pressure;BME280_temperature;BME280_humidity;BME280_pressure;Samples;Min_cycle;Max_cycle;Signal;HPM_P1;HPM_P2
2022/06/20 00:04:30;;;;;;;;;37.75;32.00;;;;;40.35;29.03;100701.91;6301946;22;46132;-80
2022/06/20 00:23:56;;;;;;;;;44.25;35.00;;;;;64.68;100.00;100681.16;6220994;22;45451;-78
2022/06/20 00:26:22;;;;;;;;;42.25;34.25;;;;;-143.39;100.00;63593.47;6357983;22;44661;-78
2022/06/20 00:28:48;;;;;;;;;44.50;32.75;;;;;-143.39;100.00;63593.47;6388749;22;43564;-79
2022/06/20 00:31:14;;;;;;;;;45.50;36.00;;;;;-143.39;100.00;63593.47;6390039;22;8777;-78
2022/06/20 00:33:40;;;;;;;;;45.25;36.00;;;;;-143.39;100.00;63593.47;6389516;22;8730;-79
2022/06/20 00:36:06;;;;;;;;;42.75;33.50;;;;;-143.39;100.00;63593.47;6413163;22;42182;-78
2022/06/20 00:38:32;;;;;;;;;47.25;34.00;;;;;-143.39;100.00;63593.47;5885910;22;11571708;-78
2022/06/20 00:41:01;;;;;;;;;39.75;32.25;;;;;-143.39;100.00;63593.47;6377275;22;45301;-78
2022/06/20 00:43:36;;;;;;;;;43.75;36.25;;;;;-143.39;100.00;63593.47;6411095;22;27736;-78
2022/06/20 00:46:06;;;;;;;;;44.75;37.25;;;;;-143.39;100.00;63593.47;2075996;22;41851741;-78
2022/06/20 00:48:48;;;;;;;;;48.75;37.00;;;;;-143.39;100.00;63593.47;6389059;22;29718;-78
2022/06/20 00:51:31;;;;;;;;;42.50;33.25;;;;;-143.39;100.00;63593.47;6390669;22;28538;-78
2022/06/20 00:54:07;;;;;;;;;38.75;32.00;;;;;-143.39;100.00;63593.47;6367912;22;564165;-78
2022/06/20 00:56:50;;;;;;;;;50.50;37.75;;;;;-143.39;100.00;63593.47;6390797;22;28328;-78
2022/06/20 00:59:22;;;;;;;;;44.25;34.75;;;;;-143.39;100.00;63593.47;6366514;22;30959;-79
2022/06/20 01:01:49;;;;;;;;;41.75;35.25;;;;;-143.39;100.00;63593.47;6389156;22;71502;-80
2022/06/20 01:04:26;;;;;;;;;44.50;36.00;;;;;-143.39;100.00;63593.47;6389840;22;44541;-80
2022/06/20 01:06:55;;;;;;;;;45.50;35.25;;;;;-143.39;100.00;63593.47;6379868;22;45296;-80
2022/06/20 01:09:25;;;;;;;;;40.00;35.25;;;;;-143.39;100.00;63593.47;6365570;22;29870;-80
2022/06/20 01:11:54;;;;;;;;;45.50;35.50;;;;;-143.39;100.00;63593.47;6355433;22;45196;-80
2022/06/20 01:14:38;;;;;;;;;42.50;35.00;;;;;-143.39;100.00;63593.47;6389134;22;45199;-80
2022/06/20 01:17:32;;;;;;;;;41.25;32.75;;;;;-143.39;100.00;63593.47;6357122;22;44682;-80
2022/06/20 01:20:08;;;;;;;;;40.00;34.00;;;;;-143.39;100.00;63593.47;6374619;22;45168;-80
2022/06/20 01:22:45;;;;;;;;;41.50;34.00;;;;;-143.39;100.00;63593.47;6349819;22;45919;-80
2022/06/20 01:25:32;;;;;;;;;42.00;35.25;;;;;-143.39;100.00;63593.47;6376653;22;45317;-80
2022/06/20 01:27:59;;;;;;;;;33.50;30.00;;;;;-143.39;100.00;63593.47;6389224;22;45710;-80
2022/06/20 01:30:28;;;;;;;;;32.75;30.00;;;;;-143.39;100.00;63593.47;6397624;22;45646;-82
2022/06/20 01:32:56;;;;;;;;;37.75;30.75;;;;;-143.39;100.00;63593.47;6384828;22;45170;-80
2022/06/20 01:38:11;;;;;;;;;31.75;26.75;;;;;-143.39;100.00;63593.47;6373799;22;45324;-80
2022/06/20 01:40:39;;;;;;;;;28.00;24.00;;;;;-143.39;100.00;63593.47;6373663;22;46519;-80
2022/06/20 01:43:05;;;;;;;;;34.25;29.50;;;;;-143.39;100.00;63593.47;6371361;22;45452;-80
2022/06/20 01:48:33;;;;;;;;;30.75;28.50;;;;;-143.39;100.00;63593.47;6274914;22;45488;-79
2022/06/20 01:50:58;;;;;;;;;33.50;28.25;;;;;-143.39;100.00;63593.47;6353380;22;45265;-79
2022/06/20 01:53:31;;;;;;;;;30.25;29.25;;;;;-143.39;100.00;63593.47;6344847;22;45594;-80
2022/06/20 01:55:58;;;;;;;;;34.00;28.25;;;;;-143.39;100.00;63593.47;6343089;22;45549;-79
2022/06/20 01:58:53;;;;;;;;;35.75;29.75;;;;;-143.39;100.00;63593.47;6373342;22;45243;-80
2022/06/20 02:01:18;;;;;;;;;34.00;27.75;;;;;-143.39;100.00;63593.47;6360062;22;45541;-80
2022/06/20 02:03:47;;;;;;;;;25.75;23.75;;;;;-143.39;100.00;63593.47;6344719;22;45585;-80
2022/06/20 02:06:15;;;;;;;;;33.25;27.25;;;;;-143.39;100.00;63593.47;6345211;22;45340;-79
2022/06/20 02:08:43;;;;;;;;;33.50;28.75;;;;;-143.39;100.00;63593.47;6378589;22;45320;-79
2022/06/20 02:11:17;;;;;;;;;34.50;26.50;;;;;-143.39;100.00;63593.47;6348090;22;47130;-79
2022/06/20 02:13:47;;;;;;;;;30.25;28.50;;;;;-143.39;100.00;63593.47;6373033;22;45610;-79
2022/06/20 02:16:17;;;;;;;;;32.50;27.50;;;;;-143.39;100.00;63593.47;6371245;22;45426;-79
2022/06/20 02:18:45;;;;;;;;;34.75;31.00;;;;;-143.39;100.00;63593.47;6344521;22;45783;-79
2022/06/20 02:21:17;;;;;;;;;35.00;30.25;;;;;-143.39;100.00;63593.47;6373550;22;46173;-79
2022/06/20 02:23:48;;;;;;;;;35.00;28.25;;;;;-143.39;100.00;63593.47;6344183;22;45127;-79
2022/06/20 02:26:16;;;;;;;;;34.00;29.75;;;;;-143.39;100.00;63593.47;6372540;22;45430;-79
2022/06/20 02:28:53;;;;;;;;;36.50;28.50;;;;;-143.39;100.00;63593.47;6370493;22;45558;-79
2022/06/20 02:31:18;;;;;;;;;30.00;27.25;;;;;-143.39;100.00;63593.47;6370922;22;47648;-79
2022/06/20 02:33:46;;;;;;;;;30.25;28.00;;;;;-143.39;100.00;63593.47;6344012;22;45526;-79
2022/06/20 02:36:12;;;;;;;;;34.00;30.50;;;;;-143.39;100.00;63593.47;6369695;22;45310;-79
2022/06/20 02:38:38;;;;;;;;;29.00;27.50;;;;;-143.39;100.00;63593.47;6344176;22;45380;-78
2022/06/20 02:41:03;;;;;;;;;31.00;28.00;;;;;-143.39;100.00;63593.47;6371336;22;47093;-79
2022/06/20 02:43:43;;;;;;;;;27.50;27.00;;;;;-143.39;100.00;63593.47;6372447;22;45384;-79
2022/06/20 02:46:13;;;;;;;;;34.50;27.25;;;;;-143.39;100.00;63593.47;6371271;22;45189;-79
2022/06/20 02:48:42;;;;;;;;;29.00;25.25;;;;;-143.39;100.00;63593.47;6344496;22;45844;-79
2022/06/20 02:51:11;;;;;;;;;26.50;24.75;;;;;-143.39;100.00;63593.47;6372624;22;47105;-80
2022/06/20 02:53:56;;;;;;;;;34.25;26.50;;;;;-143.39;100.00;63593.47;6376804;22;45445;-79
2022/06/20 02:56:25;;;;;;;;;30.00;24.25;;;;;-143.39;100.00;63593.47;6374294;22;45364;-80
2022/06/20 02:59:04;;;;;;;;;31.00;29.25;;;;;-143.39;100.00;63593.47;6369603;22;45661;-79
2022/06/20 03:01:45;;;;;;;;;31.75;28.00;;;;;-143.39;100.00;63593.47;6344391;22;45956;-79
2022/06/20 03:04:11;;;;;;;;;25.25;23.25;;;;;-143.39;100.00;63593.47;6370389;22;46337;-79
2022/06/20 03:06:42;;;;;;;;;35.25;28.50;;;;;-143.39;100.00;63593.47;6370824;22;45255;-79
2022/06/20 03:09:13;;;;;;;;;34.50;29.50;;;;;-143.39;100.00;63593.47;6371075;22;45497;-80
2022/06/20 03:11:44;;;;;;;;;29.00;27.00;;;;;-143.39;100.00;63593.47;6343959;22;47167;-79
2022/06/20 03:14:19;;;;;;;;;30.00;29.50;;;;;-143.39;100.00;63593.47;6344636;22;45356;-79
2022/06/20 03:16:54;;;;;;;;;;;;;;;;;;;;;
2022/06/20 03:19:37;;;;;;;;;;;;;;;;;;;;;
2022/06/20 03:22:16;;;;;;;;;35.50;28.25;;;;;-143.39;100.00;63593.47;6371871;22;75324;-80
2022/06/20 03:24:45;;;;;;;;;32.50;27.75;;;;;-143.39;100.00;63593.47;6370017;22;45275;-79
2022/06/20 03:27:53;;;;;;;;;25.25;25.00;;;;;-143.39;100.00;63593.47;6370797;22;45434;-79
2022/06/20 03:34:26;;;;;;;;;;;;;;;;;;;;;
2022/06/20 03:37:31;;;;;;;;;;;;;;;;;;;;;
2022/06/20 03:40:42;;;;;;;;;;;;;;;;;;;;;
2022/06/20 03:43:59;;;;;;;;;;;;;;;;;;;;;
2022/06/20 03:47:24;;;;;;;;;;;;;;;;;;;;;
2022/06/20 03:50:56;;;;;;;;;;;;;;;;;;;;;
2022/06/20 03:57:44;;;;;;;;;;;;;;;;;;;;;
2022/06/20 04:00:53;;;;;;;;;30.00;23.25;;;;;-143.39;100.00;63593.47;6365708;22;75321;-79
2022/06/20 04:14:58;;;;;;;;;;;;;;;;;;;;;
2022/06/20 04:22:11;;;;;;;;;;;;;;;;;;;;;
2022/06/20 04:51:18;;;;;;;;;;;;;;;;;;;;;
2022/06/20 04:54:49;;;;;;;;;;;;;;;;;;;;;
2022/06/20 05:01:52;;;;;;;;;;;;;;;;;;;;;
2022/06/20 05:06:04;;;;;;;;;;;;;;;;;;;;;
2022/06/20 05:12:14;;;;;;;;;;;;;;;;;;;;;
2022/06/20 05:15:06;;;;;;;;;28.00;25.00;;;;;-143.39;100.00;63593.47;6316319;22;75235;-80
2022/06/20 05:21:57;;;;;;;;;26.25;18.00;;;;;-143.39;100.00;63593.47;6183581;23;45246;-80
2022/06/20 05:35:31;;;;;;;;;22.75;21.25;;;;;-143.39;100.00;63593.47;6174588;22;45442;-80
2022/06/20 05:38:58;;;;;;;;;;;;;;;;;;;;;
2022/06/20 05:44:56;;;;;;;;;23.25;19.75;;;;;-143.39;100.00;63593.47;6246677;22;45177;-80
2022/06/20 05:59:31;;;;;;;;;23.25;18.25;;;;;-143.39;100.00;63593.47;6280578;22;45451;-79
2022/06/20 06:05:39;;;;;;;;;17.50;15.00;;;;;-143.39;100.00;63593.47;6241927;22;45448;-79
2022/06/20 18:32:29;;;;;;;;;5.00;5.00;;;;;-143.39;100.00;63593.47;5893901;24;45427;-77
2022/06/20 18:43:18;;;;;;;;;;;;;;;;;;;;;
